Time;durP1;ratioP1;P1;durP2;ratioP2;P2;SDS_P1;SDS_P2;PMS_P1;PMS_P2;Temp;Humidity;BMP_temperature;BMP_pressure;BME280_temperature;BME280_humidity;BME280_pressure;Samples;Min_cycle;Max_cycle;Signal;HPM_P1;HPM_P2
2021/12/22 00:00:49;;;;;;;16.00;7.43;;;;;-5.70;96973.00;;;;8381825;28;20276;-67
2021/12/22 00:04:53;;;;;;;13.50;7.27;;;;;-5.60;96974.00;;;;8362495;28;20235;-67
2021/12/22 00:08:58;;;;;;;14.47;7.13;;;;;-5.60;96978.00;;;;8381793;28;20865;-67
2021/12/22 00:13:02;;;;;;;16.77;6.57;;;;;-5.60;96981.00;;;;8373395;28;20223;-69
2021/12/22 00:17:05;;;;;;;13.23;6.83;;;;;-5.60;96973.00;;;;8381480;28;20305;-66
2021/12/22 00:21:09;;;;;;;14.97;6.97;;;;;-5.60;96991.00;;;;8380609;28;20265;-67
2021/12/22 00:25:14;;;;;;;13.00;6.73;;;;;-5.60;96985.00;;;;8381084;28;20314;-69
2021/12/22 00:29:19;;;;;;;12.73;6.60;;;;;-5.60;96983.00;;;;8362492;28;20329;-68
2021/12/22 00:33:22;;;;;;;13.43;6.83;;;;;-5.60;96989.00;;;;8374010;28;20775;-67
2021/12/22 00:37:28;;;;;;;12.97;6.27;;;;;-5.60;96999.00;;;;8381062;28;20259;-69
2021/12/22 00:41:31;;;;;;;18.17;6.40;;;;;-5.60;97007.00;;;;8371972;28;20736;-69
2021/12/22 00:45:36;;;;;;;17.23;7.67;;;;;-5.60;96997.00;;;;8381069;28;20227;-69
2021/12/22 00:49:39;;;;;;;16.23;6.70;;;;;-5.60;97002.00;;;;8380111;28;20708;-68
2021/12/22 00:53:42;;;;;;;16.73;7.00;;;;;-5.60;97006.00;;;;8387286;28;20257;-68
2021/12/22 00:57:46;;;;;;;12.30;6.27;;;;;-5.60;97008.00;;;;8385579;28;20220;-68
2021/12/22 01:01:54;;;;;;;11.50;6.13;;;;;-5.70;97001.00;;;;8386242;28;20244;-66
2021/12/22 01:05:57;;;;;;;18.63;7.10;;;;;-5.90;97016.00;;;;8385088;28;20323;-70
2021/12/22 01:10:01;;;;;;;16.33;6.57;;;;;-5.90;97008.00;;;;8384172;28;20257;-67
2021/12/22 01:14:04;;;;;;;12.77;6.50;;;;;-6.00;97014.00;;;;8375645;28;20278;-70
2021/12/22 01:18:14;;;;;;;13.17;6.27;;;;;-6.00;97006.00;;;;8386062;28;20239;-70
2021/12/22 01:22:28;;;;;;;12.07;5.53;;;;;-6.00;97022.00;;;;8387808;28;20731;-65
2021/12/22 01:26:39;;;;;;;10.80;6.03;;;;;-6.00;97026.00;;;;8388114;28;20574;-68
2021/12/22 01:30:45;;;;;;;15.87;7.07;;;;;-6.00;97019.00;;;;8377261;28;20651;-70
2021/12/22 01:34:50;;;;;;;17.67;6.17;;;;;-6.00;97014.00;;;;8386581;28;20247;-72
2021/12/22 01:38:53;;;;;;;12.33;5.63;;;;;-6.00;97020.00;;;;8387065;28;20248;-68
2021/12/22 01:42:57;;;;;;;11.07;6.30;;;;;-6.00;97013.00;;;;8375007;28;20257;-66
2021/12/22 01:51:25;;;;;;;14.77;6.30;;;;;-6.00;97018.00;;;;8388107;28;20262;-69
2021/12/22 01:55:35;;;;;;;10.03;5.87;;;;;-6.10;97008.00;;;;8385683;28;20314;-66
2021/12/22 01:59:38;;;;;;;14.37;6.73;;;;;-6.10;96992.00;;;;8386121;28;20661;-66
2021/12/22 02:03:42;;;;;;;12.07;5.87;;;;;-6.10;96998.00;;;;8382964;28;20681;-66
2021/12/22 02:07:49;;;;;;;12.73;6.27;;;;;-6.10;96992.00;;;;8361386;28;20233;-66
2021/12/22 02:11:52;;;;;;;11.53;5.40;;;;;-6.10;97002.00;;;;8383758;28;20656;-67
2021/12/22 02:15:55;;;;;;;13.77;6.07;;;;;-6.10;97013.00;;;;8385843;28;20961;-66
2021/12/22 02:20:00;;;;;;;10.90;5.63;;;;;-6.20;97002.00;;;;8386201;28;20279;-66
2021/12/22 02:24:03;;;;;;;11.47;5.63;;;;;-6.20;97006.00;;;;8384674;28;20248;-65
2021/12/22 02:28:15;;;;;;;13.70;5.80;;;;;-6.30;97007.00;;;;8377335;28;20320;-68
2021/12/22 02:32:37;;;;;;;12.37;5.83;;;;;-6.40;97012.00;;;;8381222;28;20636;-66
2021/12/22 02:36:42;;;;;;;13.50;5.37;;;;;-6.40;97019.00;;;;8384959;28;20572;-67
2021/12/22 02:40:46;;;;;;;26.80;6.87;;;;;-6.40;97028.00;;;;8380932;28;20267;-67
2021/12/22 02:44:50;;;;;;;11.87;6.00;;;;;-6.50;97026.00;;;;8381498;28;20253;-66
2021/12/22 02:48:53;;;;;;;12.60;5.47;;;;;-6.50;97025.00;;;;8383961;28;20268;-67
2021/12/22 02:53:04;;;;;;;11.30;5.57;;;;;-6.60;97033.00;;;;8383320;28;20255;-67
2021/12/22 02:57:20;;;;;;;11.43;5.93;;;;;-6.60;97033.00;;;;8372127;28;20264;-65
2021/12/22 03:05:45;;;;;;;19.53;6.33;;;;;-6.50;97022.00;;;;8263008;28;20232;-65
2021/12/22 03:09:57;;;;;;;24.73;7.00;;;;;-6.40;97026.00;;;;8281139;28;20231;-66
2021/12/22 03:14:00;;;;;;;11.50;6.67;;;;;-6.40;97030.00;;;;8281629;28;20235;-65
2021/12/22 03:18:06;;;;;;;12.60;6.53;;;;;-6.40;97029.00;;;;8277780;28;20258;-70
2021/12/22 03:22:11;;;;;;;14.53;7.17;;;;;-6.40;97029.00;;;;8279502;28;20275;-67
2021/12/22 03:26:17;;;;;;;20.17;6.73;;;;;-6.40;97034.00;;;;8285231;28;20249;-67
2021/12/22 03:30:24;;;;;;;18.73;6.33;;;;;-6.40;97030.00;;;;8283944;28;20326;-67
2021/12/22 03:34:28;;;;;;;13.23;6.23;;;;;-6.50;97031.00;;;;8284467;28;20256;-66
2021/12/22 03:38:32;;;;;;;14.77;6.30;;;;;-6.50;97042.00;;;;8285405;28;20756;-66
2021/12/22 03:42:37;;;;;;;19.10;6.20;;;;;-6.60;97045.00;;;;8280590;28;20282;-67
2021/12/22 03:46:41;;;;;;;19.60;6.47;;;;;-6.60;97049.00;;;;8284894;28;20279;-67
2021/12/22 03:50:44;;;;;;;11.30;5.67;;;;;-6.70;97045.00;;;;8284594;28;20651;-67
2021/12/22 03:54:47;;;;;;;13.63;5.93;;;;;-6.70;97047.00;;;;8283437;28;20651;-65
2021/12/22 03:58:52;;;;;;;11.70;5.77;;;;;-6.80;97037.00;;;;8261423;28;20316;-69
2021/12/22 04:02:55;;;;;;;18.67;6.83;;;;;-6.80;97041.00;;;;8282016;28;20309;-70
2021/12/22 04:06:59;;;;;;;16.63;6.33;;;;;-6.80;97040.00;;;;8281965;28;20230;-66
2021/12/22 04:11:02;;;;;;;12.27;5.97;;;;;-6.80;97034.00;;;;8296540;28;20262;-68
2021/12/22 04:15:07;;;;;;;16.00;6.43;;;;;-6.80;97035.00;;;;8301054;28;20728;-69
2021/12/22 04:19:11;;;;;;;10.40;6.07;;;;;-6.90;97033.00;;;;8294335;28;20688;-66
2021/12/22 04:23:15;;;;;;;17.90;5.80;;;;;-6.90;97035.00;;;;8282850;28;20258;-68
2021/12/22 04:27:18;;;;;;;12.43;5.80;;;;;-6.80;97033.00;;;;8282735;28;20408;-66
2021/12/22 04:31:23;;;;;;;17.03;5.97;;;;;-6.80;97037.00;;;;8284261;28;20313;-66
2021/12/22 04:35:27;;;;;;;12.80;6.27;;;;;-6.90;97035.00;;;;8282850;28;20298;-66
2021/12/22 04:39:32;;;;;;;10.50;6.00;;;;;-6.90;97033.00;;;;8282634;28;20302;-69
2021/12/22 04:43:35;;;;;;;11.50;5.77;;;;;-6.80;97038.00;;;;8283594;28;20318;-67
2021/12/22 04:47:41;;;;;;;9.80;5.60;;;;;-6.80;97032.00;;;;8310332;28;20248;-67
2021/12/22 04:51:50;;;;;;;15.13;6.03;;;;;-6.80;97032.00;;;;8283201;28;20235;-70
2021/12/22 04:55:53;;;;;;;12.93;5.43;;;;;-6.70;97040.00;;;;8282309;28;20285;-67
2021/12/22 04:59:56;;;;;;;11.40;6.23;;;;;-6.80;97042.00;;;;8281473;28;20665;-71
2021/12/22 05:04:01;;;;;;;9.77;5.33;;;;;-6.80;97042.00;;;;8278661;28;20231;-70
2021/12/22 05:08:05;;;;;;;12.47;5.53;;;;;-6.90;97057.00;;;;8277946;28;20259;-69
2021/12/22 05:12:09;;;;;;;14.77;5.77;;;;;-6.90;97053.00;;;;8278891;28;20321;-72
2021/12/22 05:16:17;;;;;;;9.73;5.27;;;;;-6.90;97047.00;;;;8275984;28;20263;-68
2021/12/22 05:20:23;;;;;;;10.57;5.97;;;;;-7.00;97054.00;;;;8290781;28;20237;-65
2021/12/22 05:24:26;;;;;;;15.30;5.87;;;;;-7.10;97063.00;;;;8281462;28;20323;-71
2021/12/22 05:28:29;;;;;;;12.13;5.83;;;;;-7.10;97057.00;;;;8267131;28;20356;-65
2021/12/22 05:32:33;;;;;;;14.57;4.93;;;;;-7.10;97061.00;;;;8281171;28;20318;-66
2021/12/22 05:36:37;;;;;;;11.67;5.47;;;;;-7.20;97059.00;;;;8280517;28;20253;-67
2021/12/22 05:40:41;;;;;;;11.97;5.70;;;;;-7.20;97053.00;;;;8287148;28;20230;-66
2021/12/22 05:44:44;;;;;;;11.97;5.37;;;;;-7.20;97052.00;;;;8285560;28;20240;-65
2021/12/22 05:48:48;;;;;;;13.57;5.73;;;;;-7.30;97053.00;;;;8286328;28;20352;-66
2021/12/22 05:52:53;;;;;;;10.00;5.33;;;;;-7.30;97053.00;;;;8286609;28;20276;-66
2021/12/22 05:56:57;;;;;;;10.50;5.40;;;;;-7.30;97061.00;;;;8283436;28;20253;-72
2021/12/22 06:01:00;;;;;;;18.57;5.30;;;;;-7.30;97061.00;;;;8283114;28;20267;-66
2021/12/22 06:05:04;;;;;;;14.90;5.23;;;;;-7.30;97056.00;;;;8288632;28;20737;-68
2021/12/22 06:09:09;;;;;;;11.70;5.40;;;;;-7.30;97061.00;;;;8307567;28;20273;-66
2021/12/22 06:13:12;;;;;;;10.87;5.73;;;;;-7.30;97054.00;;;;8285603;28;20305;-64
2021/12/22 06:17:15;;;;;;;12.43;5.77;;;;;-7.30;97060.00;;;;8298158;28;20257;-67
2021/12/22 06:21:21;;;;;;;10.53;5.37;;;;;-7.40;97052.00;;;;8283810;28;20302;-66
2021/12/22 06:25:27;;;;;;;10.53;5.50;;;;;-7.40;97053.00;;;;8292253;28;20243;-65
2021/12/22 06:29:30;;;;;;;12.57;5.13;;;;;-7.40;97056.00;;;;8292806;28;20226;-67
2021/12/22 06:33:35;;;;;;;8.57;5.13;;;;;-7.40;97054.00;;;;8287296;28;20252;-68
2021/12/22 06:37:38;;;;;;;11.10;6.00;;;;;-7.40;97058.00;;;;8293238;28;20341;-73
2021/12/22 06:41:44;;;;;;;14.70;5.77;;;;;-7.40;97061.00;;;;8291916;28;20253;-66
2021/12/22 06:45:47;;;;;;;9.17;5.10;;;;;-7.40;97056.00;;;;8279451;28;20305;-73
2021/12/22 06:49:50;;;;;;;12.63;5.87;;;;;-7.30;97058.00;;;;8285860;28;21201;-68
2021/12/22 06:53:59;;;;;;;9.87;4.70;;;;;-7.30;97052.00;;;;8282434;28;20266;-66
2021/12/22 06:58:03;;;;;;;13.63;5.90;;;;;-7.40;97048.00;;;;8277021;28;20968;-64
2021/12/22 07:02:07;;;;;;;11.50;5.33;;;;;-7.40;97056.00;;;;8286160;28;21256;-71
2021/12/22 07:06:10;;;;;;;10.90;5.70;;;;;-7.40;97054.00;;;;8282875;28;20255;-64
2021/12/22 07:10:14;;;;;;;10.43;5.63;;;;;-7.40;97054.00;;;;8280527;28;20309;-66
2021/12/22 07:14:18;;;;;;;11.20;5.63;;;;;-7.40;97059.00;;;;8283426;28;20648;-71
2021/12/22 07:18:22;;;;;;;8.50;5.90;;;;;-7.50;97062.00;;;;8279193;28;20337;-65
2021/12/22 07:22:25;;;;;;;16.13;5.23;;;;;-7.60;97053.00;;;;8281519;28;20322;-64
2021/12/22 07:26:28;;;;;;;9.37;5.20;;;;;-7.50;97068.00;;;;8282549;28;20325;-65
2021/12/22 07:30:33;;;;;;;11.90;5.27;;;;;-7.50;97061.00;;;;8282415;28;20252;-69
2021/12/22 07:34:47;;;;;;;10.20;5.43;;;;;-7.40;97065.00;;;;8285642;28;20249;-67
2021/12/22 07:38:57;;;;;;;9.73;6.07;;;;;-7.30;97066.00;;;;8283855;28;20261;-67
2021/12/22 07:43:00;;;;;;;14.23;5.70;;;;;-7.30;97076.00;;;;8275890;28;20994;-67
2021/12/22 07:47:05;;;;;;;12.60;6.57;;;;;-7.20;97061.00;;;;8283361;28;20307;-67
2021/12/22 07:51:09;;;;;;;19.27;8.97;;;;;-7.00;97067.00;;;;8285379;28;20248;-71
2021/12/22 07:55:12;;;;;;;13.60;6.33;;;;;-6.90;97071.00;;;;8282287;28;20231;-68
2021/12/22 07:59:15;;;;;;;18.90;7.17;;;;;-6.70;97076.00;;;;8260285;28;20267;-67
2021/12/22 08:03:20;;;;;;;11.10;6.53;;;;;-6.60;97079.00;;;;8286459;28;20253;-67
2021/12/22 08:07:43;;;;;;;10.93;6.47;;;;;-6.50;97086.00;;;;8281309;28;20266;-68
2021/12/22 08:11:48;;;;;;;17.37;6.83;;;;;-6.30;97084.00;;;;8279996;28;20331;-69
2021/12/22 08:15:51;;;;;;;15.70;7.23;;;;;-6.00;97089.00;;;;8276390;28;20314;-72
2021/12/22 08:19:56;;;;;;;13.90;6.57;;;;;-5.90;97084.00;;;;8287063;28;20326;-67
2021/12/22 08:23:59;;;;;;;16.90;6.63;;;;;-5.80;97095.00;;;;8271556;28;20674;-71
2021/12/22 08:28:02;;;;;;;12.37;6.03;;;;;-5.60;97100.00;;;;8265765;28;20260;-66
2021/12/22 08:32:06;;;;;;;15.87;7.60;;;;;-5.50;97114.00;;;;8284485;28;20320;-68
2021/12/22 08:40:37;;;;;;;16.77;8.33;;;;;-5.00;97126.00;;;;8281239;28;20318;-66
2021/12/22 08:44:40;;;;;;;22.00;7.03;;;;;-4.80;97134.00;;;;8279060;28;20273;-69
2021/12/22 08:48:43;;;;;;;21.13;9.27;;;;;-4.70;97131.00;;;;8282088;28;20308;-68
2021/12/22 08:52:48;;;;;;;81.97;26.70;;;;;-4.50;97134.00;;;;8278682;28;20336;-69
2021/12/22 08:56:52;;;;;;;20.47;8.93;;;;;-4.20;97130.00;;;;8274309;28;20313;-66
2021/12/22 09:00:55;;;;;;;98.50;35.00;;;;;-4.10;97141.00;;;;8273641;28;20317;-68
2021/12/22 09:04:59;;;;;;;20.73;9.50;;;;;-3.90;97134.00;;;;8286381;28;20264;-68
2021/12/22 09:09:05;;;;;;;49.67;17.83;;;;;-3.80;97132.00;;;;8279116;28;20222;-65
2021/12/22 09:13:09;;;;;;;147.73;44.50;;;;;-3.60;97135.00;;;;8281698;28;20248;-75
2021/12/22 09:17:13;;;;;;;46.03;17.00;;;;;-3.40;97141.00;;;;8282553;28;20226;-66
2021/12/22 09:21:17;;;;;;;37.17;18.50;;;;;-3.30;97149.00;;;;8285920;28;20232;-73
2021/12/22 09:25:22;;;;;;;25.30;11.13;;;;;-3.10;97140.00;;;;8293300;28;20317;-67
2021/12/22 09:29:26;;;;;;;49.23;24.20;;;;;-3.00;97142.00;;;;8295357;28;20261;-68
2021/12/22 09:33:29;;;;;;;26.10;11.53;;;;;-2.80;97146.00;;;;8286471;28;20384;-72
2021/12/22 09:37:33;;;;;;;18.97;8.83;;;;;-2.70;97133.00;;;;8286730;28;20279;-66
2021/12/22 09:41:38;;;;;;;23.40;10.43;;;;;-2.50;97145.00;;;;8289947;28;20253;-72
2021/12/22 09:45:45;;;;;;;18.83;9.80;;;;;-2.30;97130.00;;;;8290269;28;20340;-68
2021/12/22 09:50:06;;;;;;;20.23;10.33;;;;;-2.20;97114.00;;;;8283635;28;20568;-66
2021/12/22 09:54:10;;;;;;;22.33;10.00;;;;;-2.00;97112.00;;;;8286453;28;20802;-74
2021/12/22 09:58:16;;;;;;;48.43;25.23;;;;;-1.90;97110.00;;;;8277654;28;20253;-67
2021/12/22 10:02:22;;;;;;;17.93;8.70;;;;;-1.70;97105.00;;;;8278469;28;20234;-66
2021/12/22 10:06:26;;;;;;;31.77;10.70;;;;;-1.50;97107.00;;;;8283542;28;20234;-68
2021/12/22 10:10:30;;;;;;;39.30;14.67;;;;;-1.40;97095.00;;;;8282641;28;20260;-67
2021/12/22 10:14:36;;;;;;;44.53;16.37;;;;;-1.30;97105.00;;;;8285575;28;20262;-69
2021/12/22 10:18:39;;;;;;;31.50;12.53;;;;;-1.20;97103.00;;;;8293190;28;20750;-70
2021/12/22 10:22:44;;;;;;;23.03;9.50;;;;;-1.00;97103.00;;;;8288524;28;20246;-68
2021/12/22 10:26:47;;;;;;;27.90;12.40;;;;;-1.00;97102.00;;;;8288762;28;20680;-67
2021/12/22 10:30:56;;;;;;;56.83;23.23;;;;;-0.80;97084.00;;;;8289091;28;20257;-70
2021/12/22 10:35:02;;;;;;;15.50;7.90;;;;;-0.80;97080.00;;;;8276673;28;20341;-72
2021/12/22 10:44:37;;;;;;;16.33;9.57;;;;;-0.60;97070.00;;;;8295469;28;20222;-65
2021/12/22 10:49:21;;;;;;;16.10;8.40;;;;;-0.60;97073.00;;;;8296701;28;20249;-65
2021/12/22 10:53:46;;;;;;;11.87;7.30;;;;;-0.50;97073.00;;;;8296920;28;20253;-65
2021/12/22 10:58:22;;;;;;;12.67;7.77;;;;;-0.40;97070.00;;;;8297556;28;20233;-65
2021/12/22 11:02:31;;;;;;;17.07;8.10;;;;;-0.30;97051.00;;;;8296309;28;20620;-65
2021/12/22 11:07:07;;;;;;;17.60;8.57;;;;;-0.20;97045.00;;;;8297698;28;20231;-65
2021/12/22 11:11:38;;;;;;;17.10;9.10;;;;;-0.20;97046.00;;;;8296735;28;20245;-65
2021/12/22 11:16:12;;;;;;;15.97;8.27;;;;;-0.10;97040.00;;;;8295931;28;20226;-64
2021/12/22 11:21:03;;;;;;;15.87;8.70;;;;;0.00;97037.00;;;;8296373;28;20241;-65
2021/12/22 11:25:26;;;;;;;11.83;7.37;;;;;0.10;97036.00;;;;8296367;28;20308;-65
2021/12/22 11:30:01;;;;;;;17.17;8.13;;;;;0.20;97016.00;;;;8296033;28;20575;-65
2021/12/22 11:34:35;;;;;;;17.47;9.20;;;;;0.20;97021.00;;;;8296518;28;20248;-65
2021/12/22 11:39:13;;;;;;;14.33;8.07;;;;;0.30;97015.00;;;;8295515;28;20228;-65
2021/12/22 11:43:50;;;;;;;13.97;8.50;;;;;0.30;97012.00;;;;8295988;28;20250;-65
2021/12/22 11:48:28;;;;;;;14.97;7.57;;;;;0.40;97009.00;;;;8296098;28;20229;-66
2021/12/22 11:52:36;;;;;;;11.13;5.63;;;;;0.50;97001.00;;;;8296277;28;20253;-66
2021/12/22 11:57:16;;;;;;;14.03;7.67;;;;;0.50;96993.00;;;;8292640;28;20237;-67
2021/12/22 12:02:12;;;;;;;15.53;8.00;;;;;0.60;96988.00;;;;8296529;28;20303;-65
2021/12/22 12:06:23;;;;;;;15.57;7.83;;;;;0.70;96997.00;;;;8294654;28;20222;-65
2021/12/22 12:10:59;;;;;;;15.40;7.47;;;;;0.70;96993.00;;;;8295696;28;20222;-66
2021/12/22 12:15:53;;;;;;;15.77;7.77;;;;;0.80;96992.00;;;;8293721;28;20261;-66
2021/12/22 12:25:04;;;;;;;11.47;6.43;;;;;0.90;96984.00;;;;8293015;28;20222;-67
2021/12/22 12:29:52;;;;;;;14.30;6.90;;;;;0.90;96976.00;;;;8292500;28;20268;-70
2021/12/22 12:34:28;;;;;;;14.03;6.80;;;;;0.90;96968.00;;;;8285145;28;20225;-70
2021/12/22 12:39:06;;;;;;;12.97;6.70;;;;;1.00;96970.00;;;;8294186;28;20233;-70
2021/12/22 12:43:49;;;;;;;46.97;30.73;;;;;1.10;96958.00;;;;8294770;28;20304;-70
2021/12/22 12:48:27;;;;;;;12.67;8.00;;;;;1.20;96970.00;;;;8298238;28;20222;-70
2021/12/22 12:52:30;;;;;;;12.40;7.03;;;;;1.20;96965.00;;;;8301690;28;20249;-71
2021/12/22 12:57:20;;;;;;;13.53;6.87;;;;;1.10;96962.00;;;;8301530;28;20237;-71
2021/12/22 13:01:58;;;;;;;13.03;6.93;;;;;1.10;96951.00;;;;8302046;28;20213;-72
2021/12/22 13:06:09;;;;;;;18.67;7.60;;;;;1.10;96956.00;;;;8301523;28;20238;-72
2021/12/22 13:10:24;;;;;;;15.93;8.33;;;;;1.10;96949.00;;;;8300144;28;20231;-72
2021/12/22 13:19:11;;;;;;;12.27;7.53;;;;;1.10;96955.00;;;;8300783;28;20644;-71
2021/12/22 13:23:18;;;;;;;15.53;7.63;;;;;1.10;96957.00;;;;8300495;28;20246;-69
2021/12/22 13:27:29;;;;;;;13.30;8.13;;;;;1.10;96953.00;;;;8300231;28;20655;-70
2021/12/22 13:31:32;;;;;;;16.07;8.20;;;;;1.10;96949.00;;;;8300238;28;20253;-70
2021/12/22 13:36:14;;;;;;;15.37;7.83;;;;;1.10;96934.00;;;;8299252;28;20230;-70
2021/12/22 13:45:12;;;;;;;15.43;8.33;;;;;1.10;96941.00;;;;8392910;27;20952;-70
2021/12/22 13:49:51;;;;;;;21.43;8.67;;;;;1.10;96936.00;;;;8388084;28;20593;-70
2021/12/22 13:54:30;;;;;;;16.40;8.10;;;;;1.10;96930.00;;;;8356151;28;20221;-70
2021/12/22 13:58:40;;;;;;;11.17;6.97;;;;;1.10;96928.00;;;;8356332;28;20212;-71
2021/12/22 14:02:43;;;;;;;15.50;8.27;;;;;1.20;96930.00;;;;8355882;28;20221;-71
2021/12/22 14:07:23;;;;;;;14.83;8.07;;;;;1.10;96918.00;;;;8355041;28;20262;-68
2021/12/22 14:11:34;;;;;;;17.03;8.50;;;;;1.10;96917.00;;;;8355844;28;20295;-71
2021/12/22 14:15:38;;;;;;;15.27;8.33;;;;;1.10;96921.00;;;;8355517;28;20301;-71
2021/12/22 14:20:16;;;;;;;17.33;8.70;;;;;1.00;96923.00;;;;8355274;28;20266;-71
2021/12/22 14:24:31;;;;;;;14.97;7.87;;;;;1.00;96934.00;;;;8355005;28;20688;-70
2021/12/22 14:29:02;;;;;;;15.43;8.30;;;;;0.90;96936.00;;;;8356328;28;20235;-70
2021/12/22 14:33:37;;;;;;;14.97;8.27;;;;;0.90;96935.00;;;;8354257;28;20522;-70
2021/12/22 14:37:42;;;;;;;18.30;8.70;;;;;0.80;96933.00;;;;8354951;28;20311;-71
2021/12/22 14:41:47;;;;;;;15.20;8.73;;;;;0.80;96932.00;;;;8355600;28;20253;-69
2021/12/22 14:46:30;;;;;;;13.80;7.43;;;;;0.70;96921.00;;;;8354597;28;20248;-70
2021/12/22 14:50:34;;;;;;;13.67;8.07;;;;;0.70;96927.00;;;;8354438;28;20220;-69
2021/12/22 14:54:37;;;;;;;13.67;8.67;;;;;0.60;96922.00;;;;8341103;28;20240;-69
2021/12/22 14:58:43;;;;;;;16.83;7.87;;;;;0.40;96907.00;;;;8332305;28;20233;-69
2021/12/22 15:02:46;;;;;;;15.57;8.63;;;;;0.40;96906.00;;;;8331882;28;20237;-70
2021/12/22 15:06:49;;;;;;;19.80;8.00;;;;;0.30;96909.00;;;;8331870;28;20221;-70
2021/12/22 15:11:26;;;;;;;16.00;8.27;;;;;0.10;96897.00;;;;8332053;28;20245;-70
2021/12/22 15:16:05;;;;;;;28.40;12.60;;;;;-0.10;96900.00;;;;8332668;28;20251;-70
2021/12/22 15:20:39;;;;;;;20.00;9.63;;;;;-0.20;96898.00;;;;8332210;28;20229;-72
2021/12/22 15:24:42;;;;;;;19.73;8.67;;;;;-0.40;96887.00;;;;8331645;28;20715;-72
2021/12/22 15:29:19;;;;;;;16.57;8.00;;;;;-0.50;96884.00;;;;8332147;28;20235;-73
2021/12/22 15:33:26;;;;;;;19.67;8.97;;;;;-0.60;96904.00;;;;8332518;28;20225;-73
2021/12/22 15:37:30;;;;;;;23.70;9.13;;;;;-0.60;96888.00;;;;8328859;28;20666;-73
2021/12/22 15:42:06;;;;;;;18.20;8.73;;;;;-0.80;96890.00;;;;8315383;28;20217;-73
2021/12/22 15:51:23;;;;;;;12.33;6.93;;;;;-1.00;96893.00;;;;8330186;28;20236;-72
2021/12/22 15:55:57;;;;;;;17.97;8.23;;;;;-1.10;96879.00;;;;8330510;28;20654;-72
2021/12/22 16:00:35;;;;;;;21.60;8.83;;;;;-1.20;96883.00;;;;8331195;28;20657;-71
2021/12/22 16:05:09;;;;;;;18.67;8.63;;;;;-1.20;96883.00;;;;8329574;28;20224;-72
2021/12/22 16:09:45;;;;;;;17.07;8.80;;;;;-1.30;96886.00;;;;8329691;28;20221;-73
2021/12/22 16:14:22;;;;;;;17.97;8.70;;;;;-1.30;96882.00;;;;8330663;28;20271;-72
2021/12/22 16:18:56;;;;;;;18.90;8.37;;;;;-1.40;96881.00;;;;8330177;28;20271;-71
2021/12/22 16:23:00;;;;;;;19.83;8.70;;;;;-1.40;96877.00;;;;8329865;28;20233;-68
2021/12/22 16:27:05;;;;;;;17.13;8.87;;;;;-1.40;96876.00;;;;8329966;28;20229;-67
2021/12/22 16:31:42;;;;;;;23.10;11.07;;;;;-1.50;96879.00;;;;8329681;28;20229;-69
2021/12/22 16:35:45;;;;;;;18.27;8.33;;;;;-1.70;96872.00;;;;8362278;28;20212;-69
2021/12/22 16:40:22;;;;;;;23.67;9.70;;;;;-1.70;96882.00;;;;8362335;28;20272;-72
2021/12/22 16:45:01;;;;;;;24.63;10.73;;;;;-1.80;96871.00;;;;8330077;28;20256;-66
2021/12/22 16:54:36;;;;;;;18.90;7.97;;;;;-1.80;96864.00;;;;8358900;28;20221;-66
2021/12/22 16:59:12;;;;;;;14.53;7.57;;;;;-1.80;96850.00;;;;8329394;28;20259;-65
2021/12/22 17:03:50;;;;;;;21.30;8.43;;;;;-1.80;96845.00;;;;8327912;28;20253;-67
2021/12/22 17:08:24;;;;;;;21.47;9.47;;;;;-1.90;96854.00;;;;8329241;28;20225;-65
2021/12/22 17:13:01;;;;;;;18.30;8.70;;;;;-1.80;96847.00;;;;8328575;28;20228;-65
2021/12/22 17:17:38;;;;;;;16.50;8.53;;;;;-1.80;96836.00;;;;8327456;28;20232;-63
2021/12/22 17:22:08;;;;;;;19.10;8.97;;;;;-1.70;96836.00;;;;8326515;28;20209;-62
2021/12/22 17:26:48;;;;;;;17.63;8.87;;;;;-1.70;96830.00;;;;8327468;28;20232;-64
2021/12/22 17:31:22;;;;;;;19.60;9.27;;;;;-1.70;96835.00;;;;8327720;28;20216;-64
2021/12/22 17:35:59;;;;;;;20.80;10.27;;;;;-1.80;96848.00;;;;8328216;28;20263;-64
2021/12/22 17:40:36;;;;;;;19.53;8.67;;;;;-1.80;96857.00;;;;8326530;28;20252;-65
2021/12/22 17:45:12;;;;;;;17.13;8.77;;;;;-1.80;96849.00;;;;8327770;28;20630;-65
2021/12/22 17:49:51;;;;;;;19.80;9.37;;;;;-1.90;96847.00;;;;8327638;28;20665;-64
2021/12/22 17:54:25;;;;;;;16.00;8.87;;;;;-2.00;96846.00;;;;8327245;28;20217;-66
2021/12/22 17:59:05;;;;;;;16.80;8.70;;;;;-2.00;96830.00;;;;8326647;28;20294;-65
2021/12/22 18:03:38;;;;;;;14.47;7.80;;;;;-2.20;96829.00;;;;8327941;28;20300;-65
2021/12/22 18:08:16;;;;;;;16.60;8.73;;;;;-2.30;96828.00;;;;8326616;28;20240;-66
2021/12/22 18:12:50;;;;;;;24.13;13.20;;;;;-2.30;96810.00;;;;8332691;28;20249;-64
2021/12/22 18:16:56;;;;;;;18.90;8.03;;;;;-2.30;96822.00;;;;8328329;28;20209;-64
2021/12/22 18:21:31;;;;;;;18.47;9.03;;;;;-2.40;96805.00;;;;8326961;28;20251;-65
2021/12/22 18:26:09;;;;;;;18.07;9.87;;;;;-2.60;96815.00;;;;8326435;28;20764;-65
2021/12/22 18:30:43;;;;;;;24.87;10.00;;;;;-2.70;96819.00;;;;8331700;28;20244;-64
2021/12/22 18:35:21;;;;;;;22.43;9.97;;;;;-2.90;96822.00;;;;8332803;28;20213;-64
2021/12/22 18:39:57;;;;;;;16.57;9.63;;;;;-3.00;96812.00;;;;8333361;28;20248;-64
2021/12/22 18:44:32;;;;;;;20.40;9.30;;;;;-3.20;96800.00;;;;8333560;28;20244;-63
2021/12/22 18:53:56;;;;;;;19.00;9.47;;;;;-3.40;96800.00;;;;8333126;28;20595;-64
2021/12/22 18:58:33;;;;;;;24.53;10.03;;;;;-3.50;96799.00;;;;8333019;28;20264;-64
2021/12/22 19:03:09;;;;;;;26.03;10.70;;;;;-3.50;96797.00;;;;8364884;28;20259;-64
2021/12/22 19:07:43;;;;;;;29.10;12.00;;;;;-3.50;96778.00;;;;8361830;28;20216;-64
2021/12/22 19:12:20;;;;;;;25.20;11.17;;;;;-3.30;96775.00;;;;8336458;28;20224;-64
2021/12/22 19:16:58;;;;;;;26.23;11.57;;;;;-3.40;96765.00;;;;8364064;28;20215;-64
2021/12/22 19:21:36;;;;;;;24.47;10.80;;;;;-3.50;96774.00;;;;8331933;28;20304;-64
2021/12/22 19:26:10;;;;;;;28.93;11.70;;;;;-3.70;96782.00;;;;8331677;28;20660;-64
2021/12/22 19:30:48;;;;;;;24.70;10.63;;;;;-3.70;96782.00;;;;8332092;28;20579;-64
2021/12/22 19:34:51;;;;;;;24.27;10.23;;;;;-3.70;96772.00;;;;8364276;28;20232;-64
2021/12/22 19:38:56;;;;;;;23.00;10.47;;;;;-3.70;96770.00;;;;8365540;28;24512;-64
2021/12/22 19:43:33;;;;;;;22.00;10.30;;;;;-3.70;96769.00;;;;8364407;28;20650;-64
2021/12/22 19:52:34;;;;;;;20.17;9.47;;;;;-3.90;96771.00;;;;8331107;28;20227;-64
2021/12/22 19:57:10;;;;;;;25.83;9.30;;;;;-4.00;96780.00;;;;8330970;28;20235;-65
2021/12/22 20:01:45;;;;;;;20.13;9.60;;;;;-4.00;96774.00;;;;8330380;28;20224;-64
2021/12/22 20:06:26;;;;;;;19.83;9.43;;;;;-4.10;96773.00;;;;8330563;28;20634;-64
2021/12/22 20:11:04;;;;;;;20.50;9.17;;;;;-4.10;96772.00;;;;8329147;28;20213;-64
2021/12/22 20:15:39;;;;;;;20.43;9.70;;;;;-4.10;96776.00;;;;8330131;28;20226;-64
2021/12/22 20:19:42;;;;;;;18.13;8.90;;;;;-4.10;96769.00;;;;8329625;28;20225;-64
2021/12/22 20:24:16;;;;;;;24.17;10.83;;;;;-3.90;96751.00;;;;8329616;28;20231;-65
2021/12/22 20:28:53;;;;;;;19.73;9.80;;;;;-3.70;96747.00;;;;8329396;28;20224;-64
2021/12/22 20:33:30;;;;;;;17.90;8.80;;;;;-3.60;96748.00;;;;8330251;28;20237;-64
2021/12/22 20:37:33;;;;;;;24.77;9.70;;;;;-3.60;96739.00;;;;8329614;28;20224;-64
2021/12/22 20:41:36;;;;;;;20.90;9.23;;;;;-3.70;96725.00;;;;8329615;28;20683;-64
2021/12/22 20:46:18;;;;;;;22.10;9.47;;;;;-3.70;96730.00;;;;8329337;28;20338;-64
2021/12/22 20:50:50;;;;;;;25.53;10.80;;;;;-3.90;96721.00;;;;8329301;28;20312;-64
2021/12/22 20:54:53;;;;;;;19.57;9.57;;;;;-4.10;96717.00;;;;8362066;28;20600;-63
2021/12/22 20:58:56;;;;;;;18.03;8.90;;;;;-4.10;96711.00;;;;8362401;28;20247;-64
2021/12/22 21:03:30;;;;;;;25.60;9.57;;;;;-4.00;96711.00;;;;8362023;28;20310;-64
2021/12/22 21:08:08;;;;;;;24.00;10.30;;;;;-3.80;96688.00;;;;8330335;28;20621;-65
2021/12/22 21:12:50;;;;;;;29.47;13.23;;;;;-3.70;96685.00;;;;8329208;28;20658;-66
2021/12/22 21:16:53;;;;;;;20.40;10.13;;;;;-3.60;96674.00;;;;8361283;28;20292;-66
2021/12/22 21:21:30;;;;;;;28.60;13.00;;;;;-3.50;96681.00;;;;8362193;28;20254;-66
2021/12/22 21:26:09;;;;;;;35.97;15.47;;;;;-3.40;96681.00;;;;8361781;28;20245;-66
2021/12/22 21:30:44;;;;;;;25.70;12.43;;;;;-3.30;96671.00;;;;8358181;28;20261;-66
2021/12/22 21:34:48;;;;;;;25.80;11.57;;;;;-3.30;96664.00;;;;8331472;28;20263;-65
2021/12/22 21:38:51;;;;;;;25.80;10.80;;;;;-3.40;96665.00;;;;8329161;28;20278;-66
2021/12/22 21:43:30;;;;;;;29.10;12.80;;;;;-3.50;96667.00;;;;8328004;28;20252;-65
2021/12/22 21:47:33;;;;;;;24.83;11.27;;;;;-3.40;96667.00;;;;8328117;28;20256;-65
2021/12/22 21:52:11;;;;;;;30.53;12.63;;;;;-3.30;96666.00;;;;8328398;28;20697;-65
2021/12/22 21:56:48;;;;;;;29.07;12.17;;;;;-3.30;96660.00;;;;8327752;28;20659;-65